• Join FlightAware (Why Join?)
  • Login
  • US Flag 
02:37AM EDT


 

Airport Tracker/Info


-or-


 

Live Flight TrackerFlight Track Log ✈ EJA694 ✈ 17-Jul-2013 ✈ KBNA - KBZN

Flight Track Log - Related Links

Times and Time Zones

All times are in EDT time to prevent confusion due to time zone crossing. See the EJA694 flight status page for this flight to view local times or setup timezone preferences in your user account.

Time Position Orientation Groundspeed Altitude Reporting Facility
EDT Latitude Longitude Course Direction KTS MPH feet Rate Location/Type
02:29PM 36.1333 -86.6833 22° Northeast 160 184 1,200  Level Nashville TRACON
02:30PM 36.1667 -86.6667 22° Northeast 196 226 3,300 2,640 Climbing Nashville TRACON
02:31PM 36.1833 -86.7333 287° West 245 282 6,300 2,700 Climbing Nashville TRACON
02:32PM 36.1825 -86.8008 269° West 255 293 8,000 2,880 Climbing Memphis Center
02:33PM 36.1994 -86.8797 285° West 260 299 11,000 2,820 Climbing Memphis Center
02:34PM 36.2469 -86.9394 315° West 236 272 13,700 2,280 Climbing Memphis Center
02:35PM 36.2942 -86.9942 317° Northwest 246 283 15,600 1,800 Climbing Memphis Center
02:36PM 36.3464 -87.0667 312° West 276 318 17,300 1,320 Climbing Memphis Center
02:37PM 36.4028 -87.1572 308° West 309 356 18,300 1,200 Climbing Memphis Center
02:38PM 36.4636 -87.2478 310° West 336 387 19,800 780 Climbing Memphis Center
02:39PM 36.5367 -87.3431 314° West 350 403 19,900 1,740 Climbing Memphis Center
02:40PM 36.6056 -87.4308 314° West 360 414 23,300 2,100 Climbing Memphis Center
02:42PM 36.7450 -87.6069 315° West 365 420 26,200 1,380 Climbing Memphis Center
02:43PM 36.8158 -87.7031 313° West 370 426 27,600 1,380 Climbing Memphis Center
02:44PM 36.8886 -87.7942 315° West 370 426 29,000 1,380 Climbing Memphis Center
02:45PM 36.9553 -87.8933 310° West 370 426 30,400 1,260 Climbing Memphis Center
02:46PM 37.0014 -88.0114 296° West 370 426 31,600 1,020 Climbing Memphis Center
02:47PM 37.0469 -88.1139 299° West 375 432 32,500 900 Climbing Memphis Center
02:48PM 37.1136 -88.2239 307° West 387 445 33,500 900 Climbing Memphis Center
02:49PM 37.1839 -88.3261 311° West 392 451 34,400 540 Climbing Memphis Center
02:51PM 37.3053 -88.5119 309° West 401 461 35,000 240 Climbing Kansas City Center
02:52PM 37.3814 -88.6283 309° West 418 481 35,200 300 Climbing Kansas City Center
02:53PM 37.4592 -88.7469 310° West 432 497 35,700 360 Climbing Kansas City Center
02:54PM 37.5347 -88.8633 309° West 432 497 36,000 120 Climbing Kansas City Center
02:55PM 37.6122 -88.9850 309° West 441 507 36,000  Level Kansas City Center
02:56PM 37.6889 -89.1047 309° West 441 507 36,000 660 Level Kansas City Center
02:57PM 37.7783 -89.2453 309° West 432 497 37,400 1,380 Climbing Kansas City Center
02:58PM 37.8492 -89.3558 309° West 401 461 38,900 1,200 Climbing Kansas City Center
02:59PM 37.9167 -89.4600 309° West 386 444 39,900 540 Climbing Kansas City Center
03:00PM 37.9842 -89.5664 309° West 388 447 40,000  Climbing Kansas City Center
03:01PM 38.0614 -89.6872 309° West 408 470 40,000  Level Kansas City Center
03:02PM 38.1339 -89.8014 309° West 420 483 40,000  Level Kansas City Center
03:03PM 38.2081 -89.9206 308° West 427 491 40,000  Level Kansas City Center
03:04PM 38.2822 -90.0383 309° West 428 493 40,000  Level Kansas City Center
03:05PM 38.3567 -90.1567 309° West 427 491 40,000  Level Kansas City Center
03:06PM 38.4292 -90.2744 308° West 424 488 40,000  Level Kansas City Center
03:07PM 38.5117 -90.4106 308° West 424 488 40,000  Level Kansas City Center
03:08PM 38.5883 -90.5292 310° West 429 494 40,000  Level Kansas City Center
03:09PM 38.6619 -90.6497 308° West 441 507 40,000  Level Kansas City Center
03:10PM 38.7439 -90.7853 308° West 432 497 40,000  Level Kansas City Center
03:11PM 38.8178 -90.9050 308° West 428 493 40,000  Level Kansas City Center
03:12PM 38.8911 -91.0256 308° West 428 493 40,000  Level Kansas City Center
03:13PM 38.9644 -91.1461 308° West 428 493 40,000  Level Kansas City Center
03:14PM 39.0378 -91.2669 308° West 429 494 40,000  Level Kansas City Center
03:15PM 39.1092 -91.3881 307° West 426 490 40,000  Level Kansas City Center
03:16PM 39.1964 -91.5342 308° West 428 493 40,000  Level Kansas City Center
03:17PM 39.2692 -91.6556 308° West 429 494 40,000  Level Kansas City Center
03:18PM 39.3464 -91.7861 307° West 430 495 40,000  Level Kansas City Center
03:20PM 39.4186 -91.9086 307° West 431 496 40,000  Level Kansas City Center
03:21PM 39.4914 -92.0319 307° West 433 498 40,000  Level Kansas City Center
03:22PM 39.5631 -92.1575 307° West 434 499 40,000  Level Kansas City Center
03:23PM 39.6033 -92.3039 290° West 436 502 40,000  Level Kansas City Center
03:24PM 39.6475 -92.4469 292° West 432 497 40,000  Level Kansas City Center
03:25PM 39.7014 -92.6164 293° West 427 491 40,000  Level Kansas City Center
03:26PM 39.7522 -92.7575 295° West 429 494 40,000  Level Kansas City Center
03:27PM 39.8044 -92.8944 296° West 428 493 40,000  Level Kansas City Center
03:28PM 39.8628 -93.0300 299° West 428 493 40,000  Level Kansas City Center
03:29PM 39.9297 -93.1586 304° West 431 496 40,000  Level Kansas City Center
03:30PM 39.9933 -93.2878 303° West 427 491 40,000  Level Kansas City Center
03:31PM 40.0708 -93.4425 303° West 426 490 40,000  Level Kansas City Center
03:32PM 40.1358 -93.5733 303° West 428 493 40,000  Level Kansas City Center
03:33PM 40.2008 -93.7025 303° West 429 494 40,000  Level Kansas City Center
03:34PM 40.2642 -93.8322 303° West 427 491 40,000  Level Kansas City Center
03:35PM 40.3275 -93.9622 303° West 427 491 40,000  Level Kansas City Center
03:36PM 40.3750 -94.0681 301° West 428 493 40,000  Level Minneapolis Center
03:37PM 40.4386 -94.1994 302° West 429 494 40,000  Level Minneapolis Center
03:38PM 40.5036 -94.3308 303° West 431 496 40,000  Level Minneapolis Center
03:39PM 40.5669 -94.4619 302° West 429 494 40,000  Level Minneapolis Center
03:40PM 40.6411 -94.6153 303° West 429 494 40,000  Level Minneapolis Center
03:41PM 40.7042 -94.7472 302° West 426 490 40,000  Level Minneapolis Center
03:42PM 40.7678 -94.8783 303° West 425 489 40,000  Level Minneapolis Center
03:43PM 40.8319 -95.0103 303° West 425 489 40,000  Level Minneapolis Center
03:44PM 40.9064 -95.1667 302° West 422 486 40,000  Level Minneapolis Center
03:45PM 40.9692 -95.2994 302° West 423 487 40,000  Level Minneapolis Center
03:46PM 41.0311 -95.4339 301° West 425 489 40,000  Level Minneapolis Center
03:47PM 41.0931 -95.5703 301° West 431 496 40,000  Level Minneapolis Center
03:48PM 41.1619 -95.7158 302° West 427 491 40,000  Level Minneapolis Center
03:49PM 41.2242 -95.8500 302° West 428 493 40,000  Level Minneapolis Center
03:50PM 41.2864 -95.9858 301° West 430 495 40,000  Level Minneapolis Center
03:51PM 41.3489 -96.1208 302° West 430 495 40,000  Level Minneapolis Center
03:52PM 41.4217 -96.2822 301° West 425 489 40,000  Level Minneapolis Center
03:53PM 41.4836 -96.4186 301° West 426 490 40,000  Level Minneapolis Center
03:54PM 41.5450 -96.5544 301° West 429 494 40,000  Level Minneapolis Center
03:55PM 41.6047 -96.6900 301° West 426 490 40,000  Level Minneapolis Center
03:56PM 41.6658 -96.8258 301° West 426 490 40,000  Level Minneapolis Center
03:57PM 41.7275 -96.9622 301° West 427 491 40,000  Level Minneapolis Center
03:58PM 41.7892 -97.1008 301° West 431 496 40,000  Level Minneapolis Center
03:59PM 41.8622 -97.2661 301° West 430 495 40,000  Level Minneapolis Center
04:01PM 41.9217 -97.4028 300° West 427 491 40,000  Level Minneapolis Center
04:02PM 41.9819 -97.5400 301° West 426 490 40,000  Level Minneapolis Center
04:03PM 42.0419 -97.6786 300° West 427 491 40,000  Level Minneapolis Center
04:04PM 42.1006 -97.8142 300° West 423 487 40,000  Level Minneapolis Center
04:05PM 42.1683 -97.9744 300° West 420 483 40,000  Level Minneapolis Center
04:06PM 42.2272 -98.1094 301° West 418 481 40,000  Level Minneapolis Center
04:07PM 42.2853 -98.2461 300° West 420 483 40,000  Level Minneapolis Center
04:08PM 42.3428 -98.3819 300° West 419 482 40,000  Level Minneapolis Center
04:09PM 42.3994 -98.5164 300° West 415 478 40,000  Level Minneapolis Center
04:10PM 42.4683 -98.6803 300° West 416 479 40,000  Level Minneapolis Center
04:11PM 42.5217 -98.8211 297° West 420 483 40,000  Level Minneapolis Center
04:12PM 42.5731 -98.9586 297° West 413 475 40,000  Level Minneapolis Center
04:13PM 42.6247 -99.0986 297° West 415 478 40,000  Level Minneapolis Center
04:14PM 42.6758 -99.2369 297° West 411 473 40,000  Level Minneapolis Center
04:15PM 42.7169 -99.3483 297° West 412 474 40,000  Level Minneapolis Center
04:16PM 42.7881 -99.5442 296° West 413 475 40,000  Level Minneapolis Center
04:17PM 42.8278 -99.6558 296° West 411 473 40,000  Level Minneapolis Center
04:18PM 42.8856 -99.8172 296° West 412 474 40,000  Level Minneapolis Center
04:19PM 42.9367 -99.9564 297° West 410 472 40,000  Level Minneapolis Center
04:20PM 43.0064 -100.1525 296° West 410 472 40,000  Level Minneapolis Center
04:21PM 43.0564 -100.2936 296° West 411 473 40,000  Level Minneapolis Center
04:22PM 43.0969 -100.4036 297° West 409 471 40,000  Level Denver Center
04:23PM 43.1461 -100.5447 296° West 410 472 40,000  Level Denver Center
04:24PM 43.1953 -100.6850 296° West 408 470 40,000  Level Denver Center
04:25PM 43.2450 -100.8278 296° West 412 474 40,000  Level Denver Center
04:26PM 43.2939 -100.9681 296° West 406 467 40,000  Level Denver Center
04:27PM 43.3533 -101.1400 295° West 414 476 40,000  Level Denver Center
04:29PM 43.4111 -101.3111 295° West 410 472 40,000  Level Denver Center
04:30PM 43.4597 -101.4519 295° West 408 470 40,000  Level Denver Center
04:31PM 43.5078 -101.5950 295° West 410 472 40,000  Level Denver Center
04:32PM 43.5556 -101.7367 295° West 407 468 40,000  Level Denver Center
04:33PM 43.6044 -101.8794 295° West 410 472 40,000  Level Denver Center
04:34PM 43.6508 -102.0208 294° West 407 468 40,000  Level Denver Center
04:35PM 43.7025 -102.1747 295° West 406 467 40,000  Level Denver Center
04:36PM 43.7558 -102.3336 295° West 408 470 40,000  Level Denver Center
04:37PM 43.8003 -102.4694 294° West 406 467 40,000  Level Denver Center
04:38PM 43.8506 -102.6272 294° West 402 463 40,000  Level Denver Center
04:39PM 43.8958 -102.7650 295° West 407 468 40,000  Level Denver Center
04:40PM 43.9486 -102.9256 295° West 410 472 40,000  Level Denver Center
04:41PM 43.9772 -103.0678 286° West 406 467 40,000  Level Denver Center
04:42PM 43.9803 -103.2447 271° West 408 470 40,000  Level Denver Center
04:43PM 43.9844 -103.4200 272° West 406 467 40,000  Level Denver Center
04:44PM 43.9872 -103.5939 271° West 407 468 40,000  Level Denver Center
04:45PM 43.9894 -103.7428 271° West 405 466 40,000  Level Denver Center
04:46PM 43.9928 -103.9181 272° West 408 470 40,000  Level Denver Center
04:47PM 43.9942 -104.0681 271° West 408 470 40,000  Level Denver Center
04:49PM 43.9967 -104.2442 271° West 411 473 40,000  Level Denver Center
04:50PM 43.9978 -104.3908 271° West 403 464 40,000  Level Denver Center
04:51PM 44.0006 -104.5661 271° West 406 467 40,000  Level Denver Center
04:52PM 44.0017 -104.7161 271° West 407 468 40,000  Level Denver Center
04:53PM 44.0028 -104.8917 271° West 408 470 40,000  Level Denver Center
04:54PM 44.0044 -105.0394 271° West 403 464 40,000  Level Denver Center
04:55PM 44.0042 -105.2142 270° West 405 466 40,000  Level Denver Center
04:56PM 44.0039 -105.3650 270° West 408 470 40,000  Level Denver Center
04:57PM 44.0053 -105.5369 271° West 404 465 40,000  Level Denver Center
04:58PM 44.0053 -105.6872 270° West 406 467 40,000  Level Denver Center
04:59PM 44.0047 -105.8625 270° West 407 468 40,000  Level Denver Center
05:00PM 44.0056 -106.0111 270° West 405 466 40,000  Level Denver Center
05:01PM 44.0028 -106.1531 268° West 409 471 40,000  Level Salt Lake Center
05:02PM 44.0006 -106.3108 269° West 410 472 40,000  Level Salt Lake Center
05:03PM 44.0128 -106.4658 276° West 412 474 40,000  Level Salt Lake Center
05:04PM 44.0678 -106.6011 300° West 404 465 40,000  Level Salt Lake Center
05:05PM 44.1225 -106.7400 299° West 408 470 40,000  Level Salt Lake Center
05:06PM 44.1778 -106.8761 300° West 405 466 40,000  Level Salt Lake Center
05:07PM 44.2439 -107.0417 299° West 408 470 40,000  Level Salt Lake Center
05:08PM 44.2986 -107.1797 299° West 408 470 40,000  Level Salt Lake Center
05:09PM 44.3539 -107.3172 299° West 407 468 40,000  Level Salt Lake Center
05:10PM 44.4083 -107.4531 299° West 402 463 40,000  Level Salt Lake Center
05:11PM 44.4628 -107.5928 299° West 406 467 40,000  Level Salt Lake Center
05:12PM 44.5158 -107.7292 299° West 400 460 40,000  Level Salt Lake Center
05:13PM 44.5711 -107.8692 299° West 403 464 40,000  Level Salt Lake Center
05:14PM 44.6342 -108.0383 298° West 405 466 40,000  Level Salt Lake Center
05:15PM 44.7147 -108.1547 314° West 415 478 40,000  Level Salt Lake Center
05:16PM 44.8108 -108.2511 325° Northwest 417 480 40,000  Level Salt Lake Center
05:17PM 44.9033 -108.3478 324° Northwest 415 478 40,000 -540 Level Salt Lake Center
05:18PM 44.9931 -108.4450 323° Northwest 411 473 38,900 -1,500 Descending Salt Lake Center
05:19PM 45.0825 -108.5414 323° Northwest 407 468 37,000 -1,860 Descending Salt Lake Center
05:20PM 45.1686 -108.6378 322° Northwest 400 460 35,100 -1,500 Descending Salt Lake Center
05:21PM 45.2569 -108.7347 322° Northwest 401 461 34,000 -780 Descending Salt Lake Center
05:22PM 45.3647 -108.8522 323° Northwest 407 468 33,500 -1,080 Descending Salt Lake Center
05:23PM 45.4572 -108.9542 322° Northwest 419 482 31,800 -1,980 Descending Salt Lake Center
05:24PM 45.5475 -109.0531 323° Northwest 412 474 29,500 -2,280 Descending Salt Lake Center
05:26PM 45.6383 -109.1564 322° Northwest 417 480 27,200 -2,160 Descending Salt Lake Center
05:27PM 45.7342 -109.2664 321° Northwest 439 505 25,100 -1,920 Descending Salt Lake Center
05:28PM 45.8081 -109.3839 312° West 390 449 23,300 -1,980 Descending Salt Lake Center
05:29PM 45.8203 -109.5478 276° West 346 398 21,100 -2,460 Descending Salt Lake Center
05:30PM 45.8175 -109.6844 268° West 328 377 18,300 -2,040 Descending Salt Lake Center
05:31PM 45.8150 -109.8083 268° West 317 365 17,000 -660 Descending Salt Lake Center
05:32PM 45.8169 -109.9325 271° West 324 373 17,000  Level Salt Lake Center
05:33PM 45.8136 -110.0553 268° West 320 368 17,000 -720 Level Salt Lake Center
05:34PM 45.8092 -110.1967 267° West 308 354 15,600 -1,680 Descending Salt Lake Center
05:35PM 45.8058 -110.3131 268° West 301 346 13,600 -1,260 Descending Salt Lake Center
05:36PM 45.8022 -110.4300 268° West 297 342 13,000 -300 Descending Salt Lake Center
05:37PM 45.7997 -110.5500 268° West 299 344 13,000 -300 Level Salt Lake Center
05:38PM 45.7975 -110.6742 269° West 305 351 12,400 -540 Descending Salt Lake Center
05:39PM 45.7903 -110.7956 265° West 285 328 12,000 -240 Descending Salt Lake Center
05:40PM 45.7878 -110.8892 268° West 239 275 12,000 -360 Level Salt Lake Center
05:41PM 45.7861 -110.9875 269° West 243 280 11,300 -1,800 Descending Salt Lake Center
05:42PM 45.8061 -111.0839 287° West 235 270 8,400 -2,040 Descending Salt Lake Center
05:43PM 45.8436 -111.1386 315° West 214 246 7,200 -1,260 Descending Salt Lake Center
05:44PM 45.8506 -111.1928 280° West 180 207 5,900 -1,020 Descending Salt Lake Center
05:45PM 45.8167 -111.2058 195° South 154 177 5,200 -720 Descending Salt Lake Center
05:46PM 45.7836 -111.1614 137° Southeast 143 165 4,500 -720 Descending Salt Lake Center